createdAt,value
2023-05-02T00:01:18.030Z,99545.34
2023-05-02T00:04:19.823Z,99546.81
2023-05-02T00:07:21.886Z,99532.09
2023-05-02T00:10:23.543Z,99529.41
2023-05-02T00:13:25.160Z,99527.13
2023-05-02T00:16:26.847Z,99531.69
2023-05-02T00:19:28.503Z,99533.19
2023-05-02T00:22:30.446Z,99527.53
2023-05-02T00:25:32.069Z,99530.91
2023-05-02T00:28:33.739Z,99525.28
2023-05-02T00:31:35.453Z,99517.78
2023-05-02T00:34:37.367Z,99537.34
2023-05-02T00:37:39.033Z,99523.72
2023-05-02T00:40:48.063Z,99526.31
2023-05-02T00:43:49.789Z,99539.91
2023-05-02T00:46:51.598Z,99555.78
2023-05-02T00:49:53.294Z,99541.06
2023-05-02T00:52:55.347Z,99530.59
2023-05-02T00:55:58.423Z,99535.88
2023-05-02T00:59:00.160Z,99552.28
2023-05-02T01:02:26.788Z,99561.72
2023-05-02T01:05:29.251Z,99555.34
2023-05-02T01:08:37.002Z,99559.47
2023-05-02T01:11:52.149Z,99569.28
2023-05-02T01:14:54.213Z,99566.66
2023-05-02T01:17:55.916Z,99566.25
2023-05-02T01:21:00.533Z,99575.69
2023-05-02T01:24:16.279Z,99580.63
2023-05-02T01:27:43.132Z,99591.59
2023-05-02T01:30:44.812Z,99575.59
2023-05-02T01:33:46.485Z,99585.00
2023-05-02T01:36:49.199Z,99604.63
2023-05-02T01:39:50.898Z,99591.41
2023-05-02T01:42:53.398Z,99584.94
2023-05-02T01:45:55.060Z,99590.19
2023-05-02T01:48:57.045Z,99580.00
2023-05-02T01:51:58.767Z,99581.06
2023-05-02T01:55:00.428Z,99579.50
2023-05-02T01:58:02.074Z,99573.47
2023-05-02T02:01:05.003Z,99578.34
2023-05-02T02:04:09.424Z,99575.72
2023-05-02T02:07:12.132Z,99566.66
2023-05-02T02:10:13.811Z,99582.53
2023-05-02T02:13:22.329Z,99585.56
2023-05-02T02:16:25.419Z,99586.31
2023-05-02T02:19:27.173Z,99588.53
2023-05-02T02:22:28.824Z,99589.28
2023-05-02T02:25:30.454Z,99588.50
2023-05-02T02:28:32.106Z,99599.78
2023-05-02T02:31:34.590Z,99600.94
2023-05-02T02:34:36.453Z,99588.88
2023-05-02T02:37:58.306Z,99582.88
2023-05-02T02:41:28.285Z,99590.41
2023-05-02T02:45:05.365Z,99594.25
2023-05-02T02:48:31.411Z,99601.81
2023-05-02T02:51:37.796Z,99599.25
2023-05-02T02:54:46.406Z,99605.31
2023-05-02T02:58:02.150Z,99588.72
2023-05-02T03:01:05.130Z,99581.97
2023-05-02T03:04:07.264Z,99597.41
2023-05-02T03:07:08.935Z,99598.94
2023-05-02T03:10:10.778Z,99603.88
2023-05-02T03:13:13.741Z,99624.28
2023-05-02T03:16:29.357Z,99631.91
2023-05-02T03:19:31.396Z,99621.34
2023-05-02T03:22:33.108Z,99615.28
2023-05-02T03:25:35.601Z,99620.94
2023-05-02T03:28:37.401Z,99622.81
2023-05-02T03:31:40.356Z,99618.31
2023-05-02T03:34:42.123Z,99627.75
2023-05-02T03:37:45.131Z,99624.31
2023-05-02T03:40:46.887Z,99646.22
2023-05-02T03:43:48.705Z,99642.06
2023-05-02T03:46:51.016Z,99648.44
2023-05-02T03:49:52.781Z,99651.47
2023-05-02T03:52:54.737Z,99645.06
2023-05-02T03:56:04.449Z,99654.09
2023-05-02T03:59:16.581Z,99652.94
2023-05-02T04:02:18.662Z,99655.56
2023-05-02T04:05:22.933Z,99656.00
2023-05-02T04:08:25.266Z,99660.16
2023-05-02T04:11:27.526Z,99673.09
2023-05-02T04:14:30.281Z,99677.25
2023-05-02T04:17:32.532Z,99677.97
2023-05-02T04:20:34.301Z,99673.09
2023-05-02T04:23:36.077Z,99680.28
2023-05-02T04:26:39.118Z,99687.84
2023-05-02T04:29:44.405Z,99692.41
2023-05-02T04:32:47.088Z,99699.56
2023-05-02T04:35:49.945Z,99703.41
2023-05-02T04:38:52.884Z,99694.69
2023-05-02T04:41:54.562Z,99699.59
2023-05-02T04:44:58.265Z,99702.19
2023-05-02T04:48:00.029Z,99714.22
2023-05-02T04:51:01.841Z,99716.84
2023-05-02T04:54:05.148Z,99720.22
2023-05-02T04:57:06.756Z,99712.66
2023-05-02T05:00:11.229Z,99726.22
2023-05-02T05:03:14.205Z,99708.81
2023-05-02T05:06:16.086Z,99715.25
2023-05-02T05:09:18.931Z,99731.78
2023-05-02T05:12:20.618Z,99738.53
2023-05-02T05:15:22.343Z,99732.03
2023-05-02T05:18:28.123Z,99719.19
2023-05-02T05:21:30.098Z,99732.41
2023-05-02T05:24:33.073Z,99736.94
2023-05-02T05:27:35.600Z,99743.31
2023-05-02T05:30:37.690Z,99757.22
2023-05-02T05:33:43.240Z,99755.59
2023-05-02T05:36:46.081Z,99755.19
2023-05-02T05:39:48.333Z,99757.75
2023-05-02T05:42:50.135Z,99766.38
2023-05-02T05:45:58.433Z,99767.06
2023-05-02T05:49:00.336Z,99753.47
2023-05-02T05:52:03.562Z,99747.03
2023-05-02T05:55:06.418Z,99739.31
2023-05-02T05:58:08.526Z,99767.81
2023-05-02T06:01:11.036Z,99757.72
2023-05-02T06:04:13.228Z,99770.56
2023-05-02T06:07:18.428Z,99778.13
2023-05-02T06:10:20.271Z,99771.34
2023-05-02T06:13:22.126Z,99787.41
2023-05-02T06:16:25.111Z,99787.50
2023-05-02T06:19:26.878Z,99761.13
2023-05-02T06:22:28.521Z,99788.38
2023-05-02T06:25:30.218Z,99792.91
2023-05-02T06:28:31.836Z,99805.38
2023-05-02T06:31:33.499Z,99800.38
2023-05-02T06:34:35.178Z,99795.84
2023-05-02T06:37:36.830Z,99794.69
2023-05-02T06:40:38.493Z,99801.94
2023-05-02T06:43:40.117Z,99804.19
2023-05-02T06:46:41.951Z,99812.50
2023-05-02T06:49:43.680Z,99800.31
2023-05-02T06:52:45.364Z,99813.22
2023-05-02T06:55:47.030Z,99799.22
2023-05-02T06:58:48.766Z,99816.97
2023-05-02T07:01:50.382Z,99810.56
2023-05-02T07:04:52.207Z,99796.53
2023-05-02T07:07:53.867Z,99802.63
2023-05-02T07:10:55.491Z,99791.22
2023-05-02T07:13:57.113Z,99820.63
2023-05-02T07:16:58.855Z,99816.44
2023-05-02T07:20:00.760Z,99831.94
2023-05-02T07:23:02.614Z,99831.28
2023-05-02T07:26:06.237Z,99815.50
2023-05-02T07:29:08.599Z,99823.81
2023-05-02T07:32:10.308Z,99826.44
2023-05-02T07:35:12.037Z,99832.88
2023-05-02T07:38:13.760Z,99814.38
2023-05-02T07:41:15.412Z,99824.56
2023-05-02T07:44:17.099Z,99844.91
2023-05-02T07:47:18.751Z,99828.97
2023-05-02T07:50:20.451Z,99837.69
2023-05-02T07:53:22.053Z,99842.16
2023-05-02T07:56:26.692Z,99855.00
2023-05-02T07:59:28.377Z,99854.50
2023-05-02T08:02:30.132Z,99849.91
2023-05-02T08:05:32.362Z,99844.25
2023-05-02T08:08:33.997Z,99862.97
2023-05-02T08:11:35.644Z,99856.16
2023-05-02T08:14:37.265Z,99863.72
2023-05-02T08:17:39.000Z,99851.00
2023-05-02T08:20:40.717Z,99860.88
2023-05-02T08:23:42.383Z,99858.59
2023-05-02T08:26:44.013Z,99861.53
2023-05-02T08:29:45.667Z,99856.91
2023-05-02T08:32:47.383Z,99857.22
2023-05-02T08:35:49.133Z,99859.03
2023-05-02T08:38:50.805Z,99837.44
2023-05-02T08:41:52.457Z,99865.84
2023-05-02T08:44:54.096Z,99858.63
2023-05-02T08:47:55.768Z,99846.03
2023-05-02T08:50:57.402Z,99867.31
2023-05-02T08:53:59.086Z,99871.44
2023-05-02T08:57:00.811Z,99863.44
2023-05-02T09:00:02.532Z,99863.84
2023-05-02T09:03:13.147Z,99868.78
2023-05-02T09:06:21.375Z,99856.75
2023-05-02T09:09:23.054Z,99847.03
2023-05-02T09:12:25.693Z,99884.88
2023-05-02T09:15:27.348Z,99868.28
2023-05-02T09:18:33.212Z,99857.38
2023-05-02T09:21:39.120Z,99881.13
2023-05-02T09:24:41.255Z,99863.78
2023-05-02T09:27:56.028Z,99860.69
2023-05-02T09:31:07.277Z,99881.09
2023-05-02T09:34:09.606Z,99886.78
2023-05-02T09:37:11.225Z,99885.19
2023-05-02T09:40:13.122Z,99897.66
2023-05-02T09:43:14.846Z,99891.47
2023-05-02T09:46:17.946Z,99895.13
2023-05-02T09:49:19.747Z,99889.06
2023-05-02T09:52:21.462Z,99888.16
2023-05-02T09:55:23.122Z,99901.75
2023-05-02T09:58:25.484Z,99902.53
2023-05-02T10:01:27.154Z,99889.81
2023-05-02T10:04:30.215Z,99906.47
2023-05-02T10:07:31.885Z,99899.16
2023-05-02T10:10:36.249Z,99911.00
2023-05-02T10:13:38.142Z,99921.28
2023-05-02T10:16:52.771Z,99906.09
2023-05-02T10:20:05.838Z,99908.16
2023-05-02T10:23:08.218Z,99905.88
2023-05-02T10:26:12.645Z,99904.28
2023-05-02T10:29:14.299Z,99896.72
2023-05-02T10:32:17.895Z,99888.84
2023-05-02T10:35:19.506Z,99895.16
2023-05-02T10:38:22.564Z,99875.19
2023-05-02T10:41:27.621Z,99898.13
2023-05-02T10:44:33.547Z,99891.69
2023-05-02T10:47:35.215Z,99874.44
2023-05-02T10:50:47.073Z,99891.31
2023-05-02T10:53:48.743Z,99895.78
2023-05-02T10:56:59.505Z,99893.25
2023-05-02T11:00:22.279Z,99895.63
2023-05-02T11:03:53.336Z,99900.19
2023-05-02T11:06:57.632Z,99896.75
2023-05-02T11:10:19.449Z,99916.06
2023-05-02T11:13:49.283Z,99910.09
2023-05-02T11:17:03.228Z,99937.47
2023-05-02T11:20:04.896Z,99914.75
2023-05-02T11:23:15.553Z,99911.34
2023-05-02T11:26:21.342Z,99932.31
2023-05-02T11:30:12.296Z,99931.16
2023-05-02T11:33:14.468Z,99931.22
2023-05-02T11:36:29.374Z,99931.28
2023-05-02T11:39:31.039Z,99930.53
2023-05-02T11:42:33.696Z,99936.19
2023-05-02T11:45:35.702Z,99919.41
2023-05-02T11:48:37.335Z,99932.66
2023-05-02T11:51:39.007Z,99909.50
2023-05-02T11:54:40.652Z,99914.34
2023-05-02T11:57:42.318Z,99935.56
2023-05-02T12:00:44.282Z,99928.06
2023-05-02T12:03:46.209Z,99905.53
2023-05-02T12:06:57.485Z,99904.59
2023-05-02T12:09:59.155Z,99920.16
2023-05-02T12:13:04.575Z,99912.69
2023-05-02T12:16:06.529Z,99923.78
2023-05-02T12:19:08.226Z,99916.91
2023-05-02T12:22:13.535Z,99923.56
2023-05-02T12:25:15.177Z,99932.81
2023-05-02T12:28:19.884Z,99917.81
2023-05-02T12:31:24.674Z,99920.34
2023-05-02T12:34:33.567Z,99922.16
2023-05-02T12:37:36.239Z,99904.38
2023-05-02T12:40:37.939Z,99925.06
2023-05-02T12:43:48.827Z,99921.75
2023-05-02T12:46:59.804Z,99933.75
2023-05-02T12:50:04.985Z,99921.25
2023-05-02T12:53:06.740Z,99947.66
2023-05-02T12:56:08.480Z,99924.03
2023-05-02T12:59:11.712Z,99937.00
2023-05-02T13:02:13.366Z,99963.06
2023-05-02T13:05:15.848Z,99929.41
2023-05-02T13:08:17.479Z,99959.13
2023-05-02T13:11:19.127Z,99961.16
2023-05-02T13:14:20.793Z,99953.59
2023-05-02T13:17:22.529Z,99941.72
2023-05-02T13:20:24.203Z,99956.56
2023-05-02T13:23:25.884Z,99943.44
2023-05-02T13:26:27.511Z,99957.59
2023-05-02T13:29:29.185Z,99944.81
2023-05-02T13:32:30.861Z,99935.53
2023-05-02T13:35:34.695Z,99943.19
2023-05-02T13:38:36.979Z,99946.69
2023-05-02T13:41:38.675Z,99930.13
2023-05-02T13:44:40.306Z,99936.88
2023-05-02T13:47:41.984Z,99938.00
2023-05-02T13:50:43.682Z,99931.25
2023-05-02T13:53:45.354Z,99948.75
2023-05-02T13:56:46.992Z,99943.41
2023-05-02T13:59:48.624Z,99939.91
2023-05-02T14:02:50.287Z,99929.38
2023-05-02T14:05:51.977Z,99942.25
2023-05-02T14:08:53.591Z,99940.34
2023-05-02T14:11:55.261Z,99958.94
2023-05-02T14:14:56.929Z,99946.03
2023-05-02T14:17:58.639Z,99928.63
2023-05-02T14:21:00.293Z,99933.56
2023-05-02T14:24:01.864Z,99952.88
2023-05-02T14:27:03.524Z,99944.25
2023-05-02T14:30:05.863Z,99947.56
2023-05-02T14:33:07.743Z,99961.69
2023-05-02T14:36:09.456Z,99959.34
2023-05-02T14:39:11.106Z,99934.75
2023-05-02T14:42:12.710Z,99957.50
2023-05-02T14:45:14.412Z,99959.50
2023-05-02T14:48:16.071Z,99970.47
2023-05-02T14:51:17.747Z,99977.31
2023-05-02T14:54:19.470Z,99968.19
2023-05-02T14:57:21.161Z,99963.66
2023-05-02T15:00:22.849Z,99968.53
2023-05-02T15:03:24.779Z,99970.44
2023-05-02T15:06:29.687Z,99978.72
2023-05-02T15:09:33.102Z,99964.31
2023-05-02T15:12:34.735Z,99979.53
2023-05-02T15:15:36.407Z,99965.97
2023-05-02T15:18:38.398Z,99967.81
2023-05-02T15:21:40.049Z,99975.78
2023-05-02T15:24:44.200Z,99963.28
2023-05-02T15:27:45.873Z,99972.84
2023-05-02T15:30:47.553Z,99973.59
2023-05-02T15:33:49.202Z,99986.44
2023-05-02T15:36:50.826Z,99969.78
2023-05-02T15:39:52.494Z,99966.03
2023-05-02T15:42:54.491Z,99967.56
2023-05-02T15:45:57.728Z,99974.69
2023-05-02T15:48:59.377Z,99970.97
2023-05-02T15:52:01.123Z,99970.56
2023-05-02T15:55:03.100Z,99975.88
2023-05-02T15:58:04.747Z,99968.69
2023-05-02T16:01:06.413Z,99970.59
2023-05-02T16:04:08.232Z,99965.28
2023-05-02T16:07:10.193Z,99950.13
2023-05-02T16:10:11.897Z,99956.53
2023-05-02T16:13:13.560Z,99969.00
2023-05-02T16:16:15.251Z,99960.72
2023-05-02T16:19:16.927Z,99966.03
2023-05-02T16:22:18.551Z,99962.25
2023-05-02T16:25:20.275Z,99974.72
2023-05-02T16:28:21.915Z,99978.16
2023-05-02T16:31:23.556Z,99971.34
2023-05-02T16:34:25.217Z,99988.75
2023-05-02T16:37:26.900Z,99983.44
2023-05-02T16:40:28.590Z,99989.50
2023-05-02T16:43:30.240Z,99987.22
2023-05-02T16:46:31.917Z,99996.28
2023-05-02T16:49:33.651Z,100028.44
2023-05-02T16:52:35.374Z,100012.19
2023-05-02T16:55:37.020Z,100008.03
2023-05-02T16:58:38.694Z,100003.50
2023-05-02T17:01:40.320Z,100019.75
2023-05-02T17:04:42.006Z,100018.25
2023-05-02T17:07:43.678Z,100023.50
2023-05-02T17:10:49.378Z,100041.66
2023-05-02T17:13:51.704Z,100026.47
2023-05-02T17:16:53.394Z,100045.44
2023-05-02T17:19:55.035Z,100045.06
2023-05-02T17:22:57.139Z,100055.28
2023-05-02T17:25:58.882Z,100055.19
2023-05-02T17:29:00.588Z,100059.72
2023-05-02T17:32:02.708Z,100049.84
2023-05-02T17:35:04.743Z,100055.97
2023-05-02T17:38:06.421Z,100072.97
2023-05-02T17:41:08.471Z,100071.41
2023-05-02T17:44:10.176Z,100071.75
2023-05-02T17:47:11.816Z,100089.56
2023-05-02T17:50:13.617Z,100092.16
2023-05-02T17:53:15.263Z,100084.22
2023-05-02T17:56:17.135Z,100098.56
2023-05-02T17:59:19.115Z,100103.44
2023-05-02T18:02:20.849Z,100102.22
2023-05-02T18:05:23.362Z,100101.31
2023-05-02T18:08:25.252Z,100112.13
2023-05-02T18:11:26.908Z,100114.72
2023-05-02T18:14:28.623Z,100111.59
2023-05-02T18:17:33.206Z,100094.59
2023-05-02T18:20:41.306Z,100117.28
2023-05-02T18:23:43.485Z,100111.22
2023-05-02T18:26:45.491Z,100106.31
2023-05-02T18:29:47.576Z,100114.50
2023-05-02T18:32:49.639Z,100122.38
2023-05-02T18:35:51.769Z,100123.78
2023-05-02T18:38:56.825Z,100113.84
2023-05-02T18:42:00.135Z,100129.84
2023-05-02T18:45:02.262Z,100127.97
2023-05-02T18:48:06.484Z,100148.09
2023-05-02T18:51:08.582Z,100151.53
2023-05-02T18:54:10.580Z,100144.72
2023-05-02T18:57:12.405Z,100149.34
2023-05-02T19:00:14.572Z,100142.91
2023-05-02T19:03:16.833Z,100140.00
2023-05-02T19:06:18.782Z,100138.88
2023-05-02T19:09:20.815Z,100144.25
2023-05-02T19:12:22.952Z,100136.59
2023-05-02T19:15:24.850Z,100149.38
2023-05-02T19:18:26.769Z,100153.72
2023-05-02T19:21:28.886Z,100172.16
2023-05-02T19:24:30.574Z,100158.50
2023-05-02T19:27:32.868Z,100166.50
2023-05-02T19:30:35.353Z,100178.13
2023-05-02T19:33:38.493Z,100178.84
2023-05-02T19:36:40.849Z,100157.56
2023-05-02T19:39:43.246Z,100167.69
2023-05-02T19:42:46.656Z,100170.72
2023-05-02T19:45:50.340Z,100171.09
2023-05-02T19:48:52.369Z,100183.59
2023-05-02T19:51:54.384Z,100182.72
2023-05-02T19:54:57.628Z,100178.97
2023-05-02T19:57:59.300Z,100188.06
2023-05-02T20:01:01.317Z,100189.38
2023-05-02T20:04:03.474Z,100172.28
2023-05-02T20:07:05.807Z,100172.56
2023-05-02T20:10:08.360Z,100193.00
2023-05-02T20:13:10.800Z,100200.31
2023-05-02T20:16:13.946Z,100205.44
2023-05-02T20:19:16.724Z,100200.88
2023-05-02T20:22:19.083Z,100192.03
2023-05-02T20:25:20.928Z,100201.84
2023-05-02T20:28:22.542Z,100189.88
2023-05-02T20:31:24.855Z,100214.16
2023-05-02T20:34:26.802Z,100207.91
2023-05-02T20:37:28.530Z,100208.72
2023-05-02T20:40:30.615Z,100218.78
2023-05-02T20:43:32.321Z,100218.94
2023-05-02T20:46:34.065Z,100225.31
2023-05-02T20:49:35.757Z,100231.69
2023-05-02T20:52:37.428Z,100233.56
2023-05-02T20:55:39.029Z,100244.78
2023-05-02T20:58:40.817Z,100248.16
2023-05-02T21:01:42.520Z,100241.66
2023-05-02T21:04:44.203Z,100244.22
2023-05-02T21:07:45.867Z,100255.09
2023-05-02T21:10:47.505Z,100241.69
2023-05-02T21:13:49.145Z,100247.59
2023-05-02T21:16:51.517Z,100231.94
2023-05-02T21:19:53.495Z,100228.97
2023-05-02T21:22:55.139Z,100233.72
2023-05-02T21:25:56.792Z,100241.34
2023-05-02T21:28:58.442Z,100231.19
2023-05-02T21:32:00.147Z,100239.84
2023-05-02T21:35:02.232Z,100238.50
2023-05-02T21:38:04.166Z,100238.50
2023-05-02T21:41:05.961Z,100235.84
2023-05-02T21:44:10.260Z,100229.78
2023-05-02T21:47:11.892Z,100246.41
2023-05-02T21:50:13.544Z,100241.78
2023-05-02T21:53:15.203Z,100245.03
2023-05-02T21:56:16.875Z,100253.44
2023-05-02T21:59:18.500Z,100256.13
2023-05-02T22:02:20.197Z,100251.91
2023-05-02T22:05:21.899Z,100253.03
2023-05-02T22:08:23.501Z,100257.81
2023-05-02T22:11:25.163Z,100262.53
2023-05-02T22:14:33.773Z,100262.09
2023-05-02T22:17:45.785Z,100255.66
2023-05-02T22:20:47.459Z,100254.09
2023-05-02T22:23:49.094Z,100246.63
2023-05-02T22:26:50.775Z,100241.41
2023-05-02T22:29:52.425Z,100229.53
2023-05-02T22:32:54.110Z,100229.34
2023-05-02T22:35:55.781Z,100231.03
2023-05-02T22:38:57.449Z,100238.75
2023-05-02T22:41:59.110Z,100256.25
2023-05-02T22:45:00.823Z,100241.84
2023-05-02T22:48:02.550Z,100251.47
2023-05-02T22:51:04.298Z,100246.06
2023-05-02T22:54:06.555Z,100251.41
2023-05-02T22:57:08.219Z,100250.34
2023-05-02T23:00:10.552Z,100247.81
2023-05-02T23:03:12.319Z,100250.28
2023-05-02T23:06:14.323Z,100256.59
2023-05-02T23:09:15.979Z,100256.81
2023-05-02T23:12:17.635Z,100238.56
2023-05-02T23:15:19.280Z,100255.72
2023-05-02T23:18:21.785Z,100244.66
2023-05-02T23:21:23.507Z,100256.38
2023-05-02T23:24:25.153Z,100243.53
2023-05-02T23:27:26.797Z,100244.84
2023-05-02T23:30:29.637Z,100252.47
2023-05-02T23:33:31.309Z,100240.59
2023-05-02T23:36:33.347Z,100246.97
2023-05-02T23:39:35.018Z,100243.84
2023-05-02T23:42:36.672Z,100247.88
2023-05-02T23:45:38.322Z,100251.06
2023-05-02T23:48:39.979Z,100244.09
2023-05-02T23:51:41.574Z,100238.31
2023-05-02T23:54:43.659Z,100240.69
2023-05-02T23:57:45.343Z,100246.78
